createdAt,value
2023-03-11T00:00:36.862Z,8.73
2023-03-11T00:03:06.246Z,9.10
2023-03-11T00:05:38.988Z,10.70
2023-03-11T00:08:09.083Z,10.43
2023-03-11T00:10:40.042Z,14.55
2023-03-11T00:13:12.225Z,9.23
2023-03-11T00:15:40.615Z,7.50
2023-03-11T00:18:08.264Z,9.60
2023-03-11T00:20:39.514Z,9.02
2023-03-11T00:23:08.569Z,5.07
2023-03-11T00:25:38.699Z,6.38
2023-03-11T00:28:11.428Z,5.47
2023-03-11T00:30:40.957Z,4.20
2023-03-11T00:33:11.147Z,5.70
2023-03-11T00:35:41.444Z,3.63
2023-03-11T00:38:14.055Z,4.75
2023-03-11T00:40:41.739Z,3.15
2023-03-11T00:43:09.459Z,2.95
2023-03-11T00:45:37.320Z,3.13
2023-03-11T00:48:05.765Z,4.55
2023-03-11T00:50:35.309Z,2.70
2023-03-11T00:53:03.637Z,2.70
2023-03-11T00:55:33.604Z,3.15
2023-03-11T00:58:06.115Z,2.92
2023-03-11T01:00:59.605Z,2.88
2023-03-11T01:03:27.381Z,2.40
2023-03-11T01:05:54.890Z,3.08
2023-03-11T01:08:22.876Z,3.78
2023-03-11T01:10:50.508Z,2.35
2023-03-11T01:13:19.644Z,2.35
2023-03-11T01:15:47.496Z,2.70
2023-03-11T01:18:16.322Z,2.00
2023-03-11T01:20:43.923Z,2.20
2023-03-11T01:23:12.922Z,3.47
2023-03-11T01:25:40.680Z,3.05
2023-03-11T01:28:11.559Z,4.25
2023-03-11T01:30:41.818Z,3.35
2023-03-11T01:33:13.773Z,2.20
2023-03-11T01:35:42.627Z,2.22
2023-03-11T01:38:11.600Z,1.73
2023-03-11T01:40:42.533Z,2.72
2023-03-11T01:43:37.332Z,2.50
2023-03-11T01:47:00.344Z,1.75
2023-03-11T01:49:32.807Z,1.75
2023-03-11T01:52:08.149Z,2.25
2023-03-11T01:54:43.013Z,1.90
2023-03-11T01:57:13.819Z,1.90
2023-03-11T01:59:47.594Z,2.17
2023-03-11T02:02:24.073Z,1.52
2023-03-11T02:04:52.591Z,1.63
2023-03-11T02:07:23.797Z,1.63
2023-03-11T02:09:52.059Z,1.58
2023-03-11T02:12:20.051Z,1.55
2023-03-11T02:14:51.730Z,2.28
2023-03-11T02:17:20.228Z,1.85
2023-03-11T02:20:06.692Z,1.45
2023-03-11T02:22:35.283Z,2.13
2023-03-11T02:25:27.727Z,1.75
2023-03-11T02:28:01.400Z,1.73
2023-03-11T02:32:57.929Z,2.38
2023-03-11T02:35:26.358Z,1.63
2023-03-11T02:37:56.200Z,1.75
2023-03-11T02:40:24.217Z,2.47
2023-03-11T02:42:59.346Z,2.45
2023-03-11T02:45:32.494Z,4.03
2023-03-11T02:48:01.658Z,3.75
2023-03-11T02:50:32.429Z,2.15
2023-03-11T02:53:00.801Z,2.80
2023-03-11T02:55:29.379Z,2.25
2023-03-11T02:57:58.033Z,2.28
2023-03-11T03:00:26.178Z,1.85
2023-03-11T03:02:59.500Z,1.58
2023-03-11T03:05:28.376Z,3.20
2023-03-11T03:07:57.575Z,1.95
2023-03-11T03:10:25.588Z,4.28
2023-03-11T03:12:53.217Z,3.38
2023-03-11T03:15:20.996Z,3.30
2023-03-11T03:17:49.044Z,3.38
2023-03-11T03:20:16.821Z,2.58
2023-03-11T03:22:50.685Z,3.13
2023-03-11T03:25:21.112Z,3.17
2023-03-11T03:27:49.872Z,3.53
2023-03-11T03:30:17.749Z,2.80
2023-03-11T03:32:47.957Z,2.40
2023-03-11T03:35:18.620Z,3.30
2023-03-11T03:38:09.140Z,2.67
2023-03-11T03:40:38.609Z,2.35
2023-03-11T03:43:07.483Z,3.42
2023-03-11T03:45:36.732Z,2.33
2023-03-11T03:48:04.850Z,1.90
2023-03-11T03:50:36.325Z,1.98
2023-03-11T03:53:03.978Z,4.18
2023-03-11T03:55:32.075Z,2.00
2023-03-11T03:58:00.537Z,0.77
2023-03-11T04:00:32.967Z,1.25
2023-03-11T04:03:03.573Z,2.67
2023-03-11T04:05:39.895Z,2.30
2023-03-11T04:08:07.390Z,1.52
2023-03-11T04:10:35.559Z,1.02
2023-03-11T04:13:04.149Z,2.03
2023-03-11T04:15:32.197Z,0.95
2023-03-11T04:17:59.830Z,2.33
2023-03-11T04:20:27.805Z,3.38
2023-03-11T04:22:55.398Z,2.70
2023-03-11T04:25:25.021Z,2.10
2023-03-11T04:27:52.879Z,1.35
2023-03-11T04:30:21.755Z,1.60
2023-03-11T04:32:53.428Z,0.88
2023-03-11T04:35:21.165Z,0.98
2023-03-11T04:37:49.094Z,1.73
2023-03-11T04:40:17.057Z,1.17
2023-03-11T04:42:45.512Z,1.02
2023-03-11T04:45:13.754Z,1.02
2023-03-11T04:47:43.326Z,2.17
2023-03-11T04:50:11.254Z,1.90
2023-03-11T04:52:39.530Z,1.25
2023-03-11T04:55:08.194Z,2.63
2023-03-11T04:57:35.937Z,1.63
2023-03-11T05:00:16.029Z,0.93
2023-03-11T05:02:48.408Z,3.20
2023-03-11T05:05:22.095Z,1.88
2023-03-11T05:10:22.874Z,1.70
2023-03-11T05:12:54.222Z,1.45
2023-03-11T05:15:24.796Z,1.05
2023-03-11T05:17:52.646Z,1.40
2023-03-11T05:20:20.993Z,1.08
2023-03-11T05:22:48.836Z,3.05
2023-03-11T05:25:16.913Z,5.15
2023-03-11T05:27:45.055Z,1.50
2023-03-11T05:30:15.740Z,3.10
2023-03-11T05:32:45.099Z,3.30
2023-03-11T05:35:13.510Z,1.08
2023-03-11T05:37:41.583Z,2.40
2023-03-11T05:40:12.544Z,1.00
2023-03-11T05:42:42.075Z,1.13
2023-03-11T05:45:12.328Z,1.20
2023-03-11T05:47:42.677Z,1.40
2023-03-11T05:50:13.409Z,1.38
2023-03-11T05:52:42.209Z,1.25
2023-03-11T05:55:12.697Z,1.83
2023-03-11T05:57:42.952Z,2.08
2023-03-11T06:00:14.418Z,3.47
2023-03-11T06:02:44.178Z,3.53
2023-03-11T06:05:15.562Z,2.08
2023-03-11T06:07:45.248Z,1.48
2023-03-11T06:10:13.148Z,2.78
2023-03-11T06:12:41.043Z,1.30
2023-03-11T06:15:14.238Z,1.55
2023-03-11T06:17:42.976Z,1.35
2023-03-11T06:20:11.293Z,2.17
2023-03-11T06:22:40.300Z,1.08
2023-03-11T06:25:09.796Z,2.55
2023-03-11T06:27:40.112Z,1.65
2023-03-11T06:30:09.011Z,3.65
2023-03-11T06:32:49.769Z,1.40
2023-03-11T06:35:17.460Z,1.42
2023-03-11T06:37:44.992Z,2.88
2023-03-11T06:40:14.231Z,3.08
2023-03-11T06:42:42.297Z,2.00
2023-03-11T06:45:12.173Z,2.25
2023-03-11T06:47:42.111Z,2.35
2023-03-11T06:50:11.128Z,1.52
2023-03-11T06:52:38.880Z,2.70
2023-03-11T06:55:09.637Z,1.67
2023-03-11T06:57:38.202Z,2.38
2023-03-11T07:00:12.863Z,1.60
2023-03-11T07:02:43.428Z,1.27
2023-03-11T07:05:12.999Z,1.75
2023-03-11T07:07:40.902Z,1.85
2023-03-11T07:10:08.910Z,1.95
2023-03-11T07:12:36.854Z,2.78
2023-03-11T07:15:05.270Z,2.03
2023-03-11T07:17:36.227Z,2.50
2023-03-11T07:20:04.990Z,3.13
2023-03-11T07:22:32.665Z,3.33
2023-03-11T07:25:00.394Z,1.58
2023-03-11T07:27:28.611Z,1.98
2023-03-11T07:29:56.243Z,1.27
2023-03-11T07:32:25.277Z,1.17
2023-03-11T07:34:52.917Z,1.13
2023-03-11T07:37:20.475Z,1.02
2023-03-11T07:39:47.971Z,1.75
2023-03-11T07:42:15.484Z,2.10
2023-03-11T07:44:42.974Z,2.58
2023-03-11T07:47:10.646Z,2.08
2023-03-11T07:49:39.558Z,2.40
2023-03-11T07:52:07.425Z,4.57
2023-03-11T07:54:36.423Z,4.20
2023-03-11T07:57:04.067Z,3.97
2023-03-11T07:59:31.527Z,3.10
2023-03-11T08:01:59.144Z,2.53
2023-03-11T08:04:26.698Z,2.35
2023-03-11T08:06:54.308Z,2.05
2023-03-11T08:09:21.959Z,1.75
2023-03-11T08:11:49.820Z,2.00
2023-03-11T08:14:17.753Z,1.98
2023-03-11T08:16:45.389Z,1.85
2023-03-11T08:19:13.664Z,1.70
2023-03-11T08:21:41.351Z,1.75
2023-03-11T08:24:13.060Z,1.27
2023-03-11T08:26:41.349Z,1.63
2023-03-11T08:29:08.923Z,3.08
2023-03-11T08:31:36.613Z,1.92
2023-03-11T08:34:12.561Z,2.33
2023-03-11T08:36:40.204Z,2.80
2023-03-11T08:39:07.878Z,2.03
2023-03-11T08:41:35.969Z,2.25
2023-03-11T08:44:03.702Z,2.13
2023-03-11T08:46:32.880Z,1.40
2023-03-11T08:49:01.664Z,1.95
2023-03-11T08:51:31.208Z,1.70
2023-03-11T08:53:59.805Z,1.35
2023-03-11T08:56:28.095Z,1.30
2023-03-11T08:58:55.838Z,1.40
2023-03-11T09:01:24.070Z,1.27
2023-03-11T09:03:52.124Z,1.50
2023-03-11T09:06:20.193Z,1.92
2023-03-11T09:08:49.284Z,1.98
2023-03-11T09:11:18.135Z,1.38
2023-03-11T09:13:45.694Z,1.83
2023-03-11T09:16:16.448Z,1.35
2023-03-11T09:18:44.330Z,1.63
2023-03-11T09:21:12.627Z,4.25
2023-03-11T09:23:43.863Z,1.70
2023-03-11T09:26:13.236Z,2.10
2023-03-11T09:28:41.801Z,1.63
2023-03-11T09:31:09.857Z,2.28
2023-03-11T09:33:42.742Z,1.52
2023-03-11T09:36:15.326Z,1.73
2023-03-11T09:38:43.126Z,2.50
2023-03-11T09:41:30.861Z,1.75
2023-03-11T09:44:13.080Z,2.13
2023-03-11T09:47:04.337Z,1.85
2023-03-11T09:49:46.258Z,1.48
2023-03-11T09:52:25.184Z,2.65
2023-03-11T09:54:54.539Z,2.03
2023-03-11T09:57:31.817Z,1.67
2023-03-11T10:00:02.353Z,1.92
2023-03-11T10:02:40.979Z,1.77
2023-03-11T10:05:26.212Z,2.38
2023-03-11T10:08:25.450Z,3.70
2023-03-11T10:11:05.132Z,3.47
2023-03-11T10:13:46.207Z,3.58
2023-03-11T10:16:27.717Z,2.63
2023-03-11T10:19:32.900Z,5.78
2023-03-11T10:22:27.714Z,4.05
2023-03-11T10:25:01.029Z,1.92
2023-03-11T10:27:43.631Z,2.00
2023-03-11T10:30:27.471Z,2.67
2023-03-11T10:33:32.065Z,3.10
2023-03-11T10:36:04.746Z,2.53
2023-03-11T10:38:36.610Z,2.33
2023-03-11T10:41:11.436Z,2.08
2023-03-11T10:43:45.673Z,2.30
2023-03-11T10:46:24.419Z,3.17
2023-03-11T10:48:52.004Z,2.08
2023-03-11T10:51:27.063Z,2.13
2023-03-11T10:53:57.765Z,2.53
2023-03-11T10:56:32.858Z,1.73
2023-03-11T10:59:02.052Z,2.60
2023-03-11T11:01:30.684Z,1.73
2023-03-11T11:04:01.238Z,1.52
2023-03-11T11:06:31.975Z,1.80
2023-03-11T11:09:16.460Z,1.45
2023-03-11T11:12:02.180Z,2.17
2023-03-11T11:14:51.035Z,3.08
2023-03-11T11:17:32.083Z,2.17
2023-03-11T11:20:01.457Z,2.55
2023-03-11T11:22:32.595Z,3.58
2023-03-11T11:25:00.202Z,2.40
2023-03-11T11:27:29.654Z,3.13
2023-03-11T11:30:15.325Z,2.72
2023-03-11T11:32:43.090Z,2.95
2023-03-11T11:35:19.890Z,1.73
2023-03-11T11:38:02.313Z,2.47
2023-03-11T11:40:32.401Z,2.63
2023-03-11T11:43:06.868Z,3.65
2023-03-11T11:45:43.552Z,2.40
2023-03-11T11:48:25.884Z,2.58
2023-03-11T11:51:00.576Z,2.08
2023-03-11T11:53:47.059Z,2.30
2023-03-11T11:56:15.016Z,1.92
2023-03-11T11:58:42.681Z,3.00
2023-03-11T12:01:28.974Z,2.25
2023-03-11T12:04:07.034Z,4.45
2023-03-11T12:06:37.846Z,2.67
2023-03-11T12:09:24.469Z,2.00
2023-03-11T12:12:08.502Z,1.45
2023-03-11T12:15:07.784Z,1.40
2023-03-11T12:17:40.405Z,1.35
2023-03-11T12:20:16.005Z,1.70
2023-03-11T12:23:15.327Z,3.13
2023-03-11T12:26:10.762Z,2.10
2023-03-11T12:28:55.527Z,4.05
2023-03-11T12:31:27.790Z,3.97
2023-03-11T12:34:05.160Z,2.92
2023-03-11T12:36:36.571Z,2.10
2023-03-11T12:39:07.520Z,3.85
2023-03-11T12:41:40.186Z,5.97
2023-03-11T12:44:24.723Z,3.17
2023-03-11T12:46:58.098Z,3.90
2023-03-11T12:49:27.013Z,4.90
2023-03-11T12:52:09.695Z,3.25
2023-03-11T12:54:42.677Z,2.80
2023-03-11T12:57:32.934Z,4.13
2023-03-11T13:00:12.616Z,3.15
2023-03-11T13:02:51.133Z,2.33
2023-03-11T13:05:53.579Z,2.67
2023-03-11T13:08:33.874Z,2.70
2023-03-11T13:11:01.394Z,5.47
2023-03-11T13:13:31.783Z,2.85
2023-03-11T13:16:19.426Z,2.05
2023-03-11T13:18:52.135Z,3.22
2023-03-11T13:21:28.541Z,2.00
2023-03-11T13:24:26.225Z,1.20
2023-03-11T13:27:05.000Z,1.80
2023-03-11T13:30:00.597Z,2.33
2023-03-11T13:33:00.445Z,2.70
2023-03-11T13:35:52.022Z,2.17
2023-03-11T13:38:35.596Z,3.17
2023-03-11T13:41:04.979Z,1.60
2023-03-11T13:43:33.103Z,1.48
2023-03-11T13:46:07.892Z,1.83
2023-03-11T13:48:45.427Z,1.83
2023-03-11T13:51:28.399Z,1.70
2023-03-11T13:54:20.459Z,3.08
2023-03-11T13:56:54.348Z,1.85
2023-03-11T14:01:52.527Z,3.75
2023-03-11T14:04:41.138Z,2.88
2023-03-11T14:07:26.281Z,3.15
2023-03-11T14:10:12.442Z,4.07
2023-03-11T14:12:40.076Z,2.28
2023-03-11T14:15:17.672Z,2.67
2023-03-11T14:17:47.081Z,3.22
2023-03-11T14:20:20.417Z,2.70
2023-03-11T14:22:51.836Z,1.88
2023-03-11T14:25:26.659Z,2.25
2023-03-11T14:28:03.722Z,1.77
2023-03-11T14:30:34.370Z,2.67
2023-03-11T14:33:19.067Z,2.75
2023-03-11T14:35:58.181Z,1.67
2023-03-11T14:38:29.367Z,3.33
2023-03-11T14:41:07.393Z,2.80
2023-03-11T14:43:40.626Z,1.70
2023-03-11T14:46:10.096Z,1.83
2023-03-11T14:48:44.348Z,2.03
2023-03-11T14:51:20.538Z,3.97
2023-03-11T14:54:11.338Z,1.75
2023-03-11T14:56:43.492Z,3.83
2023-03-11T14:59:29.235Z,1.98
2023-03-11T15:02:00.184Z,3.28
2023-03-11T15:04:38.191Z,2.92
2023-03-11T15:07:07.168Z,2.75
2023-03-11T15:09:40.780Z,2.40
2023-03-11T15:12:28.592Z,2.65
2023-03-11T15:14:56.194Z,2.00
2023-03-11T15:17:42.800Z,2.33
2023-03-11T15:20:37.893Z,3.95
2023-03-11T15:23:08.058Z,2.58
2023-03-11T15:25:38.931Z,1.92
2023-03-11T15:28:25.590Z,3.40
2023-03-11T15:31:15.860Z,2.08
2023-03-11T15:33:44.014Z,4.10
2023-03-11T15:36:34.954Z,5.18
2023-03-11T15:39:18.552Z,3.78
2023-03-11T15:42:01.369Z,3.97
2023-03-11T15:44:33.602Z,1.90
2023-03-11T15:47:01.289Z,1.75
2023-03-11T15:49:30.177Z,2.85
2023-03-11T15:52:02.035Z,2.78
2023-03-11T15:54:30.115Z,3.05
2023-03-11T15:57:01.053Z,2.63
2023-03-11T15:59:29.383Z,3.38
2023-03-11T16:01:56.993Z,1.80
2023-03-11T16:04:24.826Z,2.88
2023-03-11T16:07:07.076Z,2.05
2023-03-11T16:09:35.782Z,4.07
2023-03-11T16:12:14.143Z,3.35
2023-03-11T16:14:41.725Z,3.17
2023-03-11T16:17:09.330Z,4.10
2023-03-11T16:19:36.886Z,4.88
2023-03-11T16:22:06.522Z,4.45
2023-03-11T16:24:34.220Z,1.90
2023-03-11T16:27:01.813Z,2.30
2023-03-11T16:29:29.494Z,4.95
2023-03-11T16:31:57.043Z,2.10
2023-03-11T16:34:24.636Z,2.33
2023-03-11T16:36:52.703Z,4.97
2023-03-11T16:39:20.287Z,2.60
2023-03-11T16:41:47.903Z,1.95
2023-03-11T16:44:15.629Z,3.17
2023-03-11T16:46:43.261Z,2.40
2023-03-11T16:49:10.883Z,3.85
2023-03-11T16:51:38.569Z,2.35
2023-03-11T16:54:07.644Z,4.40
2023-03-11T16:56:36.256Z,3.00
2023-03-11T16:59:04.678Z,1.65
2023-03-11T17:01:32.800Z,4.93
2023-03-11T17:04:00.783Z,2.25
2023-03-11T17:06:28.594Z,2.80
2023-03-11T17:08:56.227Z,3.38
2023-03-11T17:11:25.187Z,3.30
2023-03-11T17:13:55.410Z,3.53
2023-03-11T17:16:26.668Z,2.38
2023-03-11T17:18:55.922Z,3.35
2023-03-11T17:21:23.382Z,3.08
2023-03-11T17:23:51.927Z,3.80
2023-03-11T17:26:19.848Z,5.30
2023-03-11T17:28:48.001Z,3.97
2023-03-11T17:31:16.910Z,6.03
2023-03-11T17:33:45.311Z,3.67
2023-03-11T17:36:16.700Z,4.60
2023-03-11T17:38:46.290Z,3.00
2023-03-11T17:41:17.026Z,2.67
2023-03-11T17:43:45.433Z,3.70
2023-03-11T17:46:18.749Z,2.38
2023-03-11T17:48:49.013Z,3.47
2023-03-11T17:51:22.640Z,4.85
2023-03-11T17:53:50.601Z,3.05
2023-03-11T17:56:21.055Z,2.65
2023-03-11T17:58:50.223Z,3.72
2023-03-11T18:01:23.509Z,2.28
2023-03-11T18:03:51.616Z,2.30
2023-03-11T18:06:20.288Z,2.53
2023-03-11T18:08:48.017Z,1.92
2023-03-11T18:11:19.210Z,2.13
2023-03-11T18:13:47.203Z,2.40
2023-03-11T18:16:20.480Z,2.88
2023-03-11T18:18:48.598Z,3.45
2023-03-11T18:21:19.165Z,5.03
2023-03-11T18:23:47.766Z,2.70
2023-03-11T18:26:17.941Z,4.35
2023-03-11T18:28:46.132Z,2.40
2023-03-11T18:31:17.937Z,3.15
2023-03-11T18:33:57.424Z,1.85
2023-03-11T18:36:28.045Z,4.07
2023-03-11T18:38:57.522Z,4.82
2023-03-11T18:41:26.163Z,3.88
2023-03-11T18:43:57.497Z,7.15
2023-03-11T18:46:26.780Z,6.38
2023-03-11T18:48:57.732Z,10.23
2023-03-11T18:51:30.341Z,9.10
2023-03-11T18:53:58.204Z,7.32
2023-03-11T18:56:25.873Z,8.38
2023-03-11T18:58:56.316Z,12.60
2023-03-11T19:01:24.149Z,9.10
2023-03-11T19:03:54.479Z,7.35
2023-03-11T19:06:22.860Z,8.35
2023-03-11T19:08:50.631Z,6.82
2023-03-11T19:11:20.483Z,6.65
2023-03-11T19:13:48.477Z,5.05
2023-03-11T19:16:19.314Z,6.07
2023-03-11T19:18:47.942Z,3.72
2023-03-11T19:21:16.637Z,5.85
2023-03-11T19:23:45.203Z,3.28
2023-03-11T19:26:13.639Z,4.65
2023-03-11T19:28:43.679Z,4.38
2023-03-11T19:31:12.916Z,4.20
2023-03-11T19:33:41.349Z,3.75
2023-03-11T19:36:09.531Z,3.95
2023-03-11T19:38:37.126Z,2.83
2023-03-11T19:41:08.636Z,2.75
2023-03-11T19:43:37.181Z,2.85
2023-03-11T19:46:06.458Z,2.80
2023-03-11T19:48:34.491Z,2.25
2023-03-11T19:51:06.318Z,3.17
2023-03-11T19:53:36.128Z,1.98
2023-03-11T19:56:05.099Z,2.40
2023-03-11T19:58:35.334Z,3.60
2023-03-11T20:01:03.803Z,2.58
2023-03-11T20:03:32.059Z,2.40
2023-03-11T20:06:05.949Z,3.88
